Time;durP1;ratioP1;P1;durP2;ratioP2;P2;SDS_P1;SDS_P2;PMS_P1;PMS_P2;Temp;Humidity;BMP_temperature;BMP_pressure;BME280_temperature;BME280_humidity;BME280_pressure;Samples;Min_cycle;Max_cycle;Signal;HPM_P1;HPM_P2
2023/05/25 00:04:29;;;;;;;6.05;2.28;;;;;;;19.27;39.60;102451.47;16119473;19;130586;-49
2023/05/25 00:09:51;;;;;;;4.32;1.92;;;;;;;19.25;39.71;102459.16;16122589;19;130142;-40
2023/05/25 00:15:13;;;;;;;5.97;2.42;;;;;;;19.25;39.67;102452.75;16132915;19;129240;-49
2023/05/25 00:20:34;;;;;;;6.32;2.50;;;;;;;19.24;39.60;102451.88;16126331;19;130789;-41
2023/05/25 00:25:57;;;;;;;4.50;1.98;;;;;;;19.23;39.57;102450.19;16114799;19;131359;-40
2023/05/25 00:31:19;;;;;;;5.78;1.95;;;;;;;19.21;39.89;102453.19;16117775;19;131254;-44
2023/05/25 00:36:42;;;;;;;6.60;2.15;;;;;;;19.20;39.76;102461.69;16114956;19;130540;-43
2023/05/25 00:42:06;;;;;;;4.00;1.77;;;;;;;19.18;39.54;102458.28;16111266;19;129287;-41
2023/05/25 00:47:28;;;;;;;5.10;1.95;;;;;;;19.18;39.77;102455.50;16112626;19;131435;-45
2023/05/25 00:52:50;;;;;;;4.60;1.95;;;;;;;19.16;39.65;102454.84;16109983;19;130592;-44
2023/05/25 00:58:12;;;;;;;5.22;2.03;;;;;;;19.15;39.85;102459.53;16111777;19;129303;-43
2023/05/25 01:03:36;;;;;;;4.70;1.90;;;;;;;19.14;39.66;102465.31;16116065;19;129806;-46
2023/05/25 01:09:02;;;;;;;7.60;2.15;;;;;;;19.15;39.52;102469.78;16113677;19;130097;-43
2023/05/25 01:14:26;;;;;;;6.22;1.85;;;;;;;19.14;39.73;102465.31;16112503;19;130297;-41
2023/05/25 01:19:48;;;;;;;5.22;2.10;;;;;;;19.12;40.02;102465.53;16112088;19;129664;-41
2023/05/25 01:25:35;;;;;;;5.50;1.98;;;;;;;19.13;39.79;102471.91;16103565;19;130531;-42
2023/05/25 01:30:58;;;;;;;5.38;2.33;;;;;;;19.11;40.01;102471.28;16108404;19;130047;-44
2023/05/25 01:36:21;;;;;;;4.35;1.88;;;;;;;19.08;40.03;102470.63;16104071;19;130802;-43
2023/05/25 01:41:43;;;;;;;3.88;1.60;;;;;;;19.07;39.84;102477.25;16105656;19;129258;-42
2023/05/25 01:47:15;;;;;;;7.63;2.10;;;;;;;19.08;39.55;102476.16;16107678;19;130630;-42
2023/05/25 01:52:59;;;;;;;4.47;2.13;;;;;;;19.06;39.68;102471.91;16109700;19;129760;-41
2023/05/25 01:58:24;;;;;;;4.35;2.00;;;;;;;19.04;39.92;102474.91;16118908;19;129474;-42
2023/05/25 02:03:47;;;;;;;6.67;2.33;;;;;;;19.05;39.53;102478.53;16126969;19;134157;-45
2023/05/25 02:09:09;;;;;;;4.32;1.95;;;;;;;19.03;39.71;102477.88;16124837;19;130811;-42
2023/05/25 02:14:31;;;;;;;4.63;1.98;;;;;;;19.02;39.97;102482.59;16122702;19;129368;-41
2023/05/25 02:19:53;;;;;;;5.78;2.08;;;;;;;19.02;39.80;102488.13;16123076;19;130078;-42
2023/05/25 02:25:15;;;;;;;4.93;1.83;;;;;;;19.01;39.74;102486.41;16122572;19;129495;-44
2023/05/25 02:30:38;;;;;;;3.95;1.83;;;;;;;19.01;39.65;102485.56;16121281;19;129503;-45
2023/05/25 02:36:00;;;;;;;4.32;2.08;;;;;;;18.99;39.85;102479.38;16125315;19;130222;-45
2023/05/25 02:41:23;;;;;;;3.65;1.80;;;;;;;18.98;40.08;102486.84;16121460;19;130744;-43
2023/05/25 02:46:45;;;;;;;5.32;2.00;;;;;;;18.98;39.90;102480.44;16120763;19;130486;-41
2023/05/25 02:52:07;;;;;;;5.80;2.03;;;;;;;18.96;39.98;102486.19;16122486;19;129681;-43
2023/05/25 02:57:29;;;;;;;5.80;2.35;;;;;;;18.95;39.59;102492.81;16122695;19;129989;-43
2023/05/25 03:02:51;;;;;;;4.72;1.90;;;;;;;18.94;39.83;102496.66;16117360;19;130842;-42
2023/05/25 03:08:13;;;;;;;4.95;2.15;;;;;;;18.93;39.59;102492.16;16119852;19;129777;-41
2023/05/25 03:13:35;;;;;;;5.80;2.30;;;;;;;18.90;39.68;102490.66;16121988;19;130196;-42
2023/05/25 03:18:57;;;;;;;6.38;2.17;;;;;;;18.90;39.62;102490.66;16122534;19;130835;-41
2023/05/25 03:24:19;;;;;;;4.80;1.83;;;;;;;18.89;39.52;102499.19;16117933;19;130462;-44
2023/05/25 03:29:40;;;;;;;5.35;1.98;;;;;;;18.88;39.42;102500.25;16121291;19;130155;-44
2023/05/25 03:35:04;;;;;;;6.50;2.22;;;;;;;18.88;39.71;102505.78;16114891;19;129464;-40
2023/05/25 03:40:27;;;;;;;5.10;2.10;;;;;;;18.88;39.74;102511.34;16120828;19;131773;-44
2023/05/25 03:45:50;;;;;;;5.47;1.90;;;;;;;18.87;39.46;102520.72;16116006;19;135349;-40
2023/05/25 03:51:12;;;;;;;3.75;1.75;;;;;;;18.86;39.42;102522.66;16117993;19;129639;-42
2023/05/25 03:56:34;;;;;;;7.53;2.15;;;;;;;18.86;39.79;102521.78;16117423;19;130193;-41
2023/05/25 04:01:56;;;;;;;5.32;1.92;;;;;;;18.86;39.79;102524.56;16113839;19;130035;-43
2023/05/25 04:07:19;;;;;;;4.88;1.90;;;;;;;18.84;39.43;102535.88;16114081;19;131021;-41
2023/05/25 04:12:40;;;;;;;4.93;2.13;;;;;;;18.84;39.50;102529.47;16112712;19;130360;-41
2023/05/25 04:18:03;;;;;;;2.95;1.63;;;;;;;18.85;39.51;102542.25;16111918;19;132319;-44
2023/05/25 04:23:24;;;;;;;4.35;1.75;;;;;;;18.84;39.93;102540.53;16115624;19;133469;-40
2023/05/25 04:28:47;;;;;;;4.05;1.60;;;;;;;18.82;39.63;102551.84;16117108;19;130020;-42
2023/05/25 04:34:09;;;;;;;6.13;2.28;;;;;;;18.81;39.85;102552.91;16115586;19;129404;-42
2023/05/25 04:39:31;;;;;;;8.25;2.33;;;;;;;18.82;39.75;102545.47;16112933;19;129917;-46
2023/05/25 04:44:54;;;;;;;5.22;2.10;;;;;;;18.82;39.61;102559.34;16113517;19;131123;-42
2023/05/25 04:50:16;;;;;;;4.72;1.80;;;;;;;18.81;39.88;102557.63;16112508;19;130306;-45
2023/05/25 04:55:38;;;;;;;4.55;1.92;;;;;;;18.81;39.63;102560.41;16112526;19;130696;-45
2023/05/25 05:01:00;;;;;;;3.72;1.98;;;;;;;18.80;39.66;102562.28;16113311;19;129692;-43
2023/05/25 05:06:24;;;;;;;5.60;2.00;;;;;;;18.80;39.60;102567.00;16110525;19;129470;-44
2023/05/25 05:11:46;;;;;;;3.50;1.92;;;;;;;18.82;39.62;102574.03;16109339;19;130181;-41
2023/05/25 05:17:08;;;;;;;3.75;1.80;;;;;;;;;;16105124;19;130160;-45
2023/05/25 05:22:32;;;;;;;5.43;1.95;;;;;;;19.04;39.81;102585.84;16114686;19;132978;-42
2023/05/25 05:27:54;;;;;;;10.48;2.28;;;;;;;19.18;39.67;102591.44;16112694;19;131107;-40
2023/05/25 05:33:16;;;;;;;13.43;2.28;;;;;;;19.31;39.54;102588.75;16108992;19;129665;-43
2023/05/25 05:38:40;;;;;;;12.20;2.33;;;;;;;19.44;39.64;102589.81;16109857;19;131252;-40
2023/05/25 05:44:02;;;;;;;9.43;2.15;;;;;;;19.55;39.68;102596.66;16111211;19;130634;-43
2023/05/25 05:49:23;;;;;;;12.52;2.45;;;;;;;19.64;39.48;102596.25;16112910;19;130898;-40
2023/05/25 05:54:45;;;;;;;12.10;2.65;;;;;;;19.74;39.84;102600.50;16116677;19;130649;-43
2023/05/25 06:00:08;;;;;;;10.32;2.40;;;;;;;19.80;39.57;102610.78;16111944;19;130435;-42
2023/05/25 06:05:30;;;;;;;9.25;2.35;;;;;;;19.87;39.68;102614.41;16109758;19;130026;-42
2023/05/25 06:10:52;;;;;;;12.55;2.55;;;;;;;19.93;39.59;102627.44;16106806;19;129764;-40
2023/05/25 06:16:14;;;;;;;11.30;2.22;;;;;;;19.98;39.23;102622.09;16105985;19;130256;-42
2023/05/25 06:21:36;;;;;;;10.68;2.20;;;;;;;20.04;39.04;102639.00;16111227;19;130128;-41
2023/05/25 06:26:58;;;;;;;5.65;1.75;;;;;;;20.08;38.88;102640.28;16106968;19;129673;-46
2023/05/25 06:32:20;;;;;;;10.00;2.47;;;;;;;20.12;39.07;102630.44;16106585;19;130663;-43
2023/05/25 06:37:42;;;;;;;9.82;2.35;;;;;;;20.18;39.06;102629.59;16103951;19;129636;-43
2023/05/25 06:43:04;;;;;;;11.20;2.30;;;;;;;20.22;39.15;102636.41;16117410;19;130700;-41
2023/05/25 06:48:26;;;;;;;9.20;2.17;;;;;;;20.26;38.90;102643.25;16125028;19;130234;-45
2023/05/25 06:53:48;;;;;;;6.55;2.63;;;;;;;20.32;38.96;102649.00;16118790;19;129747;-42
2023/05/25 06:59:10;;;;;;;5.82;1.90;;;;;;;20.36;39.03;102650.28;16122423;19;130760;-43
2023/05/25 07:04:33;;;;;;;8.48;2.00;;;;;;;20.38;39.06;102649.00;16121251;19;129590;-43
2023/05/25 07:09:55;;;;;;;9.30;2.33;;;;;;;20.44;38.75;102655.63;16116595;19;131143;-44
2023/05/25 07:15:17;;;;;;;7.47;2.15;;;;;;;20.49;39.18;102658.63;16117725;19;129475;-49
2023/05/25 07:20:40;;;;;;;9.82;2.30;;;;;;;20.53;38.95;102654.34;16120694;19;131495;-46
2023/05/25 07:26:03;;;;;;;6.68;2.22;;;;;;;20.55;38.80;102663.31;16120043;19;129763;-48
2023/05/25 07:31:26;;;;;;;5.25;1.60;;;;;;;20.55;39.11;102666.09;16118045;19;131154;-47
2023/05/25 07:36:48;;;;;;;6.35;2.22;;;;;;;20.57;39.37;102677.00;16119730;19;130371;-47
2023/05/25 07:42:10;;;;;;;11.00;1.85;;;;;;;20.58;39.11;102667.59;16120210;19;129322;-42
2023/05/25 07:47:32;;;;;;;6.13;2.28;;;;;;;20.56;39.20;102673.34;16115704;19;129691;-44
2023/05/25 07:52:54;;;;;;;8.90;2.13;;;;;;;20.55;39.10;102668.88;16113555;19;129885;-44
2023/05/25 07:58:16;;;;;;;12.82;2.03;;;;;;;20.54;39.39;102674.66;16117342;19;130617;-39
2023/05/25 08:03:38;;;;;;;12.30;2.30;;;;;;;20.58;39.27;102676.78;16116745;19;130584;-43
2023/05/25 08:09:12;;;;;;;8.20;2.10;;;;;;;20.62;39.34;102681.91;16113125;19;134639;-44
2023/05/25 08:14:33;;;;;;;4.82;1.90;;;;;;;20.63;39.63;102689.19;16117759;19;129368;-43
2023/05/25 08:19:56;;;;;;;6.13;2.33;;;;;;;20.62;39.65;102688.31;16114537;19;130725;-41
2023/05/25 08:25:18;;;;;;;21.13;2.42;;;;;;;20.60;39.26;102688.53;16113663;19;129583;-45
2023/05/25 08:30:42;;;;;;;10.23;2.17;;;;;;;20.60;39.57;102691.31;16115406;19;130503;-42
2023/05/25 08:36:05;;;;;;;4.57;2.30;;;;;;;20.58;39.39;102696.22;16113692;19;133335;-42
2023/05/25 08:41:28;;;;;;;6.22;1.73;;;;;;;20.58;39.86;102696.22;16113372;19;130650;-45
2023/05/25 08:46:50;;;;;;;7.05;1.92;;;;;;;20.56;39.89;102694.75;16115639;19;129779;-46
2023/05/25 08:52:13;;;;;;;14.40;1.80;;;;;;;20.54;39.61;102694.97;16112199;19;129900;-41
2023/05/25 08:57:47;;;;;;;6.28;1.88;;;;;;;20.53;39.45;102693.28;16114846;19;130115;-44
2023/05/25 09:03:16;;;;;;;9.38;1.85;;;;;;;20.51;39.38;102695.41;16111126;19;129414;-45
2023/05/25 09:08:39;;;;;;;6.28;1.75;;;;;;;20.45;39.64;102696.25;16114427;19;130811;-48
2023/05/25 09:14:02;;;;;;;4.57;2.13;;;;;;;20.43;39.59;102692.84;16109080;19;129765;-42
2023/05/25 09:19:24;;;;;;;9.43;2.00;;;;;;;20.39;39.61;102689.63;16111424;19;129243;-50
2023/05/25 09:24:46;;;;;;;9.38;2.38;;;;;;;20.36;39.05;102697.56;16111803;19;129695;-45
2023/05/25 09:30:08;;;;;;;7.03;1.83;;;;;;;20.28;39.00;102691.16;16113915;19;131353;-45
2023/05/25 09:35:30;;;;;;;9.40;1.92;;;;;;;20.23;38.86;102696.50;16106349;19;130595;-44
2023/05/25 09:40:52;;;;;;;7.03;2.03;;;;;;;20.23;39.18;102692.88;16107294;19;130778;-46
2023/05/25 09:46:14;;;;;;;5.63;1.77;;;;;;;20.19;38.74;102697.97;16109843;19;132649;-45
2023/05/25 09:51:36;;;;;;;5.55;1.40;;;;;;;20.18;38.59;102701.84;16108433;19;129352;-43
2023/05/25 09:57:01;;;;;;;7.20;1.50;;;;;;;20.16;38.69;102697.56;16107319;19;129605;-46
2023/05/25 10:02:23;;;;;;;3.30;1.50;;;;;;;20.12;39.05;102686.03;16109057;19;130008;-42
2023/05/25 10:07:46;;;;;;;3.03;1.55;;;;;;;20.10;38.71;102699.25;16103986;19;129885;-42
2023/05/25 10:13:09;;;;;;;4.35;1.60;;;;;;;20.08;38.74;102706.94;16103525;19;131720;-49
2023/05/25 10:18:34;;;;;;;7.97;2.00;;;;;;;20.07;38.60;102710.78;16117007;19;130196;-42
2023/05/25 10:24:05;;;;;;;4.80;1.80;;;;;;;20.06;38.71;102692.44;16126202;19;132144;-47
2023/05/25 10:29:28;;;;;;;5.07;1.70;;;;;;;20.05;38.60;102696.28;16126483;19;130508;-44
2023/05/25 10:34:52;;;;;;;4.88;1.80;;;;;;;20.03;38.03;102703.97;16125202;19;129570;-42
2023/05/25 10:40:14;;;;;;;6.40;1.80;;;;;;;20.02;37.84;102707.81;16119439;19;129662;-45
2023/05/25 10:45:36;;;;;;;5.18;1.63;;;;;;;19.99;37.93;102693.28;16120988;19;129845;-47
2023/05/25 10:50:58;;;;;;;5.90;1.67;;;;;;;19.99;37.96;102703.53;16117720;19;131663;-46
2023/05/25 10:56:20;;;;;;;6.82;1.77;;;;;;;20.01;38.39;102703.31;16117794;19;130918;-43
2023/05/25 11:01:50;;;;;;;7.63;1.90;;;;;;;20.03;37.90;102703.97;16122623;19;131503;-45
2023/05/25 11:07:15;;;;;;;6.30;1.80;;;;;;;20.03;37.84;102709.53;16120626;19;129764;-43
2023/05/25 11:12:37;;;;;;;4.20;1.60;;;;;;;20.02;38.05;102703.09;16117684;19;128965;-43
2023/05/25 11:18:00;;;;;;;6.43;2.20;;;;;;;20.05;37.89;102701.84;16120282;19;130919;-49
2023/05/25 11:23:23;;;;;;;7.75;1.77;;;;;;;20.06;38.58;102704.41;16118711;19;130668;-42
2023/05/25 11:28:45;;;;;;;6.53;1.70;;;;;;;20.07;38.56;102706.13;16120854;19;129994;-43
2023/05/25 11:34:08;;;;;;;4.88;1.65;;;;;;;20.08;38.09;102698.63;16118226;19;130491;-43
2023/05/25 11:39:33;;;;;;;8.93;1.70;;;;;;;20.08;38.24;102698.63;16118793;19;131048;-42
2023/05/25 11:44:55;;;;;;;4.78;1.50;;;;;;;20.08;38.38;102693.94;16115979;19;130553;-47
2023/05/25 11:50:17;;;;;;;3.90;1.67;;;;;;;20.09;38.20;102698.44;16118012;19;130597;-43
2023/05/25 11:55:41;;;;;;;7.45;2.13;;;;;;;20.07;38.38;102695.00;16119707;19;130264;-44
2023/05/25 12:01:13;;;;;;;7.25;1.98;;;;;;;20.09;38.17;102692.00;16119689;19;130873;-42
2023/05/25 12:06:35;;;;;;;6.63;2.10;;;;;;;20.07;38.65;102696.91;16116748;19;130221;-41
2023/05/25 12:11:58;;;;;;;4.90;1.92;;;;;;;20.06;38.35;102686.88;16118156;19;129696;-45
2023/05/25 12:17:21;;;;;;;3.58;1.63;;;;;;;20.06;38.17;102682.16;16117311;19;130125;-42
2023/05/25 12:22:44;;;;;;;5.38;1.83;;;;;;;20.06;38.52;102676.63;16117780;19;129646;-43
2023/05/25 12:28:11;;;;;;;6.97;1.75;;;;;;;20.09;38.36;102694.78;16115885;19;129608;-42
2023/05/25 12:33:33;;;;;;;8.23;2.03;;;;;;;20.09;38.56;102676.19;16117845;19;130831;-42
2023/05/25 12:38:58;;;;;;;6.07;2.20;;;;;;;20.10;38.38;102679.81;16116223;19;129577;-42
2023/05/25 12:44:31;;;;;;;10.20;1.90;;;;;;;20.11;38.32;102681.53;16113893;19;131117;-42
2023/05/25 12:50:12;;;;;;;6.28;1.85;;;;;;;20.11;38.30;102678.75;16117000;19;129669;-43
2023/05/25 12:55:34;;;;;;;7.70;2.00;;;;;;;20.09;38.21;102678.09;16117719;19;130537;-42
2023/05/25 13:00:56;;;;;;;11.77;2.70;;;;;;;20.07;38.81;102675.56;16116007;19;129219;-45
2023/05/25 13:06:18;;;;;;;7.60;2.28;;;;;;;20.08;38.67;102670.84;16114711;19;129681;-48
2023/05/25 13:11:40;;;;;;;8.50;2.00;;;;;;;20.08;38.45;102659.72;16112443;19;129358;-49
2023/05/25 13:17:03;;;;;;;6.38;2.00;;;;;;;20.11;39.59;102659.31;16107746;19;131646;-45
2023/05/25 13:22:25;;;;;;;8.20;1.90;;;;;;;20.12;39.90;102653.50;16107608;19;131058;-49
2023/05/25 13:27:49;;;;;;;9.82;2.63;;;;;;;20.14;39.88;102645.81;16110018;19;131652;-46
2023/05/25 13:33:11;;;;;;;8.90;2.03;;;;;;;20.16;39.54;102637.28;16112039;19;129713;-45
2023/05/25 13:38:34;;;;;;;6.70;2.28;;;;;;;20.18;39.86;102637.06;16114124;19;130250;-47
2023/05/25 13:43:56;;;;;;;8.43;2.28;;;;;;;20.18;39.72;102635.16;16112293;19;131713;-48
2023/05/25 13:49:18;;;;;;;6.30;2.22;;;;;;;20.16;39.85;102634.50;16116495;19;130113;-42
2023/05/25 13:54:40;;;;;;;9.02;2.60;;;;;;;20.17;39.79;102632.56;16141451;19;131594;-41
2023/05/25 14:00:03;;;;;;;6.97;2.20;;;;;;;20.17;39.68;102633.44;16144747;19;132222;-41
2023/05/25 14:05:27;;;;;;;7.85;2.40;;;;;;;20.14;39.50;102628.31;16144377;19;129316;-43
2023/05/25 14:10:49;;;;;;;8.98;2.35;;;;;;;20.16;40.02;102625.31;16143394;19;130776;-41
2023/05/25 14:16:11;;;;;;;5.95;1.98;;;;;;;20.17;39.95;102636.22;16141768;19;131067;-41
2023/05/25 14:21:33;;;;;;;7.25;2.28;;;;;;;20.17;39.63;102636.22;16141670;19;130191;-41
2023/05/25 14:26:55;;;;;;;5.00;2.05;;;;;;;20.18;39.85;102637.94;16136626;19;130090;-41
2023/05/25 14:32:18;;;;;;;8.25;2.78;;;;;;;20.18;39.22;102635.16;16138888;19;131483;-43
2023/05/25 14:37:40;;;;;;;6.45;2.25;;;;;;;20.12;39.16;102641.56;16137145;19;130344;-44
2023/05/25 14:43:02;;;;;;;3.47;1.98;;;;;;;20.10;38.92;102632.59;16140394;19;130514;-41
2023/05/25 14:48:24;;;;;;;10.00;2.83;;;;;;;20.07;39.13;102624.66;16143375;19;131071;-43
2023/05/25 14:53:46;;;;;;;5.88;2.47;;;;;;;20.04;38.93;102623.19;16139052;19;129346;-42
2023/05/25 14:59:08;;;;;;;4.97;2.00;;;;;;;20.03;39.01;102615.91;16139404;19;130770;-41
2023/05/25 15:04:30;;;;;;;7.43;2.10;;;;;;;20.04;39.21;102611.22;16121350;19;131563;-45
2023/05/25 15:09:52;;;;;;;6.93;2.25;;;;;;;20.03;39.11;102606.75;16122404;19;131317;-44
2023/05/25 15:15:14;;;;;;;6.30;2.45;;;;;;;20.00;38.49;102610.78;16119465;19;129687;-44
2023/05/25 15:20:36;;;;;;;7.93;2.10;;;;;;;19.99;38.58;102614.63;16125118;19;129503;-45
2023/05/25 15:26:03;;;;;;;9.35;2.55;;;;;;;19.97;38.50;102611.19;16119441;19;129218;-43
2023/05/25 15:31:25;;;;;;;5.97;2.40;;;;;;;19.97;38.42;102609.25;16118823;19;130808;-44
2023/05/25 15:36:47;;;;;;;5.60;2.60;;;;;;;19.95;37.98;102611.41;16118046;19;135502;-43
2023/05/25 15:42:09;;;;;;;18.17;3.40;;;;;;;19.97;38.34;102605.66;16120433;19;129602;-41
2023/05/25 15:47:31;;;;;;;20.23;4.00;;;;;;;20.05;38.99;102607.38;16116975;19;130601;-44
2023/05/25 15:52:53;;;;;;;12.35;3.92;;;;;;;20.09;38.42;102603.97;16118724;19;129666;-47
2023/05/25 15:58:16;;;;;;;14.18;3.80;;;;;;;20.13;38.31;102609.94;16114812;19;132039;-43
2023/05/25 16:03:40;;;;;;;13.60;3.30;;;;;;;20.15;38.47;102605.00;16116018;19;129480;-42
2023/05/25 16:09:03;;;;;;;9.70;2.90;;;;;;;20.20;38.94;102610.75;16115440;19;130736;-44
2023/05/25 16:14:25;;;;;;;8.73;3.13;;;;;;;20.23;39.49;102613.13;16114307;19;130582;-42
2023/05/25 16:19:47;;;;;;;17.75;3.40;;;;;;;20.32;40.47;102607.31;16114988;19;129644;-41
2023/05/25 16:25:09;;;;;;;20.83;4.05;;;;;;;20.37;40.96;102608.38;16112181;19;130906;-43
2023/05/25 16:30:31;;;;;;;9.38;3.58;;;;;;;20.39;40.99;102603.47;16116706;19;131432;-41
2023/05/25 16:35:53;;;;;;;15.30;3.78;;;;;;;20.42;40.98;102602.19;16114722;19;130537;-43
2023/05/25 16:41:15;;;;;;;11.60;3.13;;;;;;;20.42;41.61;102614.16;16114463;19;130758;-44
2023/05/25 16:46:37;;;;;;;9.25;2.92;;;;;;;20.40;41.76;102604.34;16111476;19;129796;-44
2023/05/25 16:52:01;;;;;;;14.50;3.88;;;;;;;20.39;41.50;102603.47;16112013;19;131146;-43
2023/05/25 16:57:23;;;;;;;13.82;3.53;;;;;;;20.38;41.31;102598.97;16112194;19;130823;-41
2023/05/25 17:02:45;;;;;;;16.88;3.85;;;;;;;20.42;41.71;102602.19;16113671;19;129554;-43
2023/05/25 17:08:08;;;;;;;10.00;2.97;;;;;;;20.44;41.42;102589.78;16115021;19;130169;-42
2023/05/25 17:13:30;;;;;;;14.50;3.50;;;;;;;20.45;41.43;102590.63;16113946;19;131095;-40
2023/05/25 17:18:52;;;;;;;16.95;3.38;;;;;;;20.47;40.94;102588.47;16113364;19;131139;-43
2023/05/25 17:24:14;;;;;;;19.30;2.80;;;;;;;20.49;41.00;102591.91;16113315;19;129843;-40
2023/05/25 17:29:36;;;;;;;13.15;2.85;;;;;;;20.51;40.65;102588.88;16111475;19;129504;-40
2023/05/25 17:34:58;;;;;;;9.25;2.85;;;;;;;20.53;41.06;102592.31;16112672;19;129735;-42
2023/05/25 17:40:20;;;;;;;11.77;2.83;;;;;;;20.51;40.53;102595.31;16032751;19;130370;-40
2023/05/25 17:45:42;;;;;;;10.38;2.78;;;;;;;20.45;40.14;102601.72;16112536;19;130769;-43
2023/05/25 17:51:04;;;;;;;9.23;2.75;;;;;;;20.42;39.81;102604.97;16107487;19;134137;-41
2023/05/25 17:56:27;;;;;;;11.40;2.88;;;;;;;20.39;39.69;102600.69;16109924;19;130782;-43
2023/05/25 18:01:48;;;;;;;10.05;2.80;;;;;;;20.35;39.49;102601.34;16110310;19;130869;-41
2023/05/25 18:07:10;;;;;;;7.05;2.78;;;;;;;20.31;39.36;102594.53;16113476;19;129970;-44
2023/05/25 18:12:32;;;;;;;9.02;2.35;;;;;;;20.27;39.31;102594.94;16106584;19;130973;-43
2023/05/25 18:17:54;;;;;;;18.80;3.60;;;;;;;20.23;39.24;102599.22;16108316;19;130553;-41
2023/05/25 18:23:16;;;;;;;11.98;3.40;;;;;;;20.21;38.86;102594.97;16110284;19;129339;-41
2023/05/25 18:28:38;;;;;;;12.77;3.03;;;;;;;20.19;38.70;102597.94;16107318;19;130339;-40
2023/05/25 18:34:00;;;;;;;9.60;3.17;;;;;;;20.14;38.85;102589.41;16108084;19;129172;-40
2023/05/25 18:39:22;;;;;;;12.50;3.03;;;;;;;20.11;38.60;102592.63;16110715;19;131204;-40
2023/05/25 18:44:44;;;;;;;9.43;2.97;;;;;;;20.09;38.16;102597.53;16119829;19;130915;-43
2023/05/25 18:50:06;;;;;;;9.27;2.92;;;;;;;20.06;38.46;102609.09;16117651;19;129461;-40
2023/05/25 18:55:28;;;;;;;17.52;3.22;;;;;;;20.03;38.04;102607.59;16120136;19;129974;-41
2023/05/25 19:00:50;;;;;;;9.88;2.85;;;;;;;20.01;38.83;102614.44;16114578;19;133856;-40
2023/05/25 19:06:12;;;;;;;12.30;3.47;;;;;;;19.99;38.17;102615.50;16118125;19;129435;-45
2023/05/25 19:11:34;;;;;;;12.55;2.80;;;;;;;19.98;38.25;102621.25;16119800;19;129815;-39
2023/05/25 19:16:56;;;;;;;12.68;2.80;;;;;;;19.95;38.35;102621.66;16120559;19;132019;-42
2023/05/25 19:22:18;;;;;;;9.63;2.65;;;;;;;19.93;38.39;102615.47;16116893;19;130474;-39
2023/05/25 19:27:40;;;;;;;10.48;3.10;;;;;;;19.90;38.29;102621.44;16116613;19;131711;-40
2023/05/25 19:33:01;;;;;;;10.68;2.92;;;;;;;19.87;38.46;102625.50;16116928;19;130193;-39
2023/05/25 19:38:23;;;;;;;13.75;3.25;;;;;;;19.85;38.58;102624.88;16120660;19;131190;-40
2023/05/25 19:43:54;;;;;;;38.75;5.13;;;;;;;19.83;38.16;102627.00;16117459;19;131855;-41
2023/05/25 19:49:16;;;;;;;10.63;3.72;;;;;;;19.81;38.64;102631.94;16113158;19;130926;-40
2023/05/25 19:54:38;;;;;;;17.88;4.35;;;;;;;19.78;38.30;102647.06;16117121;19;130053;-41
2023/05/25 20:00:00;;;;;;;19.20;3.58;;;;;;;19.78;38.43;102657.34;16113439;19;131455;-40
2023/05/25 20:05:23;;;;;;;15.20;4.15;;;;;;;19.79;38.50;102659.06;16117379;19;131415;-40
2023/05/25 20:10:44;;;;;;;15.25;3.92;;;;;;;19.78;38.24;102662.91;16119130;19;134987;-40
2023/05/25 20:16:10;;;;;;;17.45;3.88;;;;;;;19.77;38.68;102672.28;16115182;19;131345;-39
2023/05/25 20:21:32;;;;;;;18.90;4.43;;;;;;;19.78;38.54;102665.69;16114332;19;130709;-39
2023/05/25 20:26:55;;;;;;;23.20;4.30;;;;;;;19.77;38.47;102677.84;16105748;19;131436;-41
2023/05/25 20:32:17;;;;;;;34.30;4.70;;;;;;;19.77;38.86;102680.63;16113616;19;130582;-43
2023/05/25 20:37:40;;;;;;;20.08;4.28;;;;;;;19.78;39.30;102690.66;16111769;19;130941;-40
2023/05/25 20:43:02;;;;;;;25.48;5.03;;;;;;;19.79;38.84;102697.94;16111110;19;129589;-40
2023/05/25 20:48:24;;;;;;;21.70;4.43;;;;;;;19.78;39.24;102699.00;16112648;19;129620;-44
2023/05/25 20:53:46;;;;;;;16.98;4.25;;;;;;;19.78;40.03;102707.34;16108325;19;130909;-43
2023/05/25 20:59:08;;;;;;;13.65;4.63;;;;;;;19.78;39.61;102710.09;16109348;19;130210;-41
2023/05/25 21:04:30;;;;;;;22.25;4.20;;;;;;;19.75;39.44;102708.63;16109618;19;130779;-41
2023/05/25 21:09:55;;;;;;;18.35;4.60;;;;;;;19.74;39.65;102711.59;16110544;19;131554;-43
2023/05/25 21:15:17;;;;;;;17.33;4.17;;;;;;;19.69;39.28;102699.19;16110419;19;129736;-42
2023/05/25 21:20:39;;;;;;;17.45;4.15;;;;;;;19.67;39.75;102701.34;16111578;19;129577;-41
2023/05/25 21:26:01;;;;;;;17.63;3.95;;;;;;;19.67;39.41;102706.88;16109339;19;130481;-40
2023/05/25 21:31:23;;;;;;;18.17;4.38;;;;;;;19.66;39.53;102707.06;16109828;19;130158;-41
2023/05/25 21:36:45;;;;;;;25.15;5.03;;;;;;;19.63;39.46;102711.13;16112017;19;131204;-42
2023/05/25 21:42:08;;;;;;;13.20;3.83;;;;;;;19.63;39.36;102711.13;16110936;19;129620;-43
2023/05/25 21:47:30;;;;;;;13.45;3.90;;;;;;;19.59;39.41;102707.06;16113477;19;129725;-44
2023/05/25 21:52:52;;;;;;;20.27;4.75;;;;;;;19.58;39.31;102710.91;16112173;19;130145;-43
2023/05/25 21:58:16;;;;;;;14.93;4.43;;;;;;;19.58;39.17;102721.16;16110688;19;129647;-40
2023/05/25 22:03:38;;;;;;;16.63;4.25;;;;;;;19.57;39.29;102722.22;16111658;19;130170;-40
2023/05/25 22:09:00;;;;;;;18.65;4.50;;;;;;;19.55;39.28;102722.44;16112979;19;130448;-42
2023/05/25 22:14:22;;;;;;;14.52;3.83;;;;;;;19.54;39.33;102731.84;16124151;19;129559;-40
2023/05/25 22:19:44;;;;;;;13.73;3.70;;;;;;;19.52;38.96;102726.47;16128790;19;132642;-43
2023/05/25 22:25:19;;;;;;;16.00;4.18;;;;;;;19.50;39.04;102728.63;16123652;19;130779;-40
2023/05/25 22:30:41;;;;;;;15.98;4.00;;;;;;;19.52;39.22;102733.97;16128153;19;130214;-43
2023/05/25 22:36:03;;;;;;;20.95;4.95;;;;;;;19.52;39.21;102731.19;16122725;19;129461;-42
2023/05/25 22:41:25;;;;;;;15.07;4.22;;;;;;;19.52;39.13;102731.19;16125711;19;129733;-41
2023/05/25 22:46:47;;;;;;;25.65;4.30;;;;;;;19.51;39.30;102732.25;16117511;19;129940;-42
2023/05/25 22:52:10;;;;;;;18.95;4.35;;;;;;;19.52;38.80;102737.56;16118942;19;133564;-43
2023/05/25 22:57:32;;;;;;;15.40;4.25;;;;;;;19.52;38.79;102739.50;16121071;19;130811;-43
2023/05/25 23:02:54;;;;;;;13.68;3.97;;;;;;;19.51;38.99;102740.56;16121380;19;129594;-40
2023/05/25 23:08:16;;;;;;;16.60;4.65;;;;;;;19.50;38.81;102742.50;16122566;19;129727;-40
2023/05/25 23:13:40;;;;;;;14.30;4.38;;;;;;;19.50;38.98;102741.63;16118318;19;131422;-44
2023/05/25 23:19:02;;;;;;;15.88;4.15;;;;;;;19.49;38.83;102737.16;16122585;19;129162;-41
2023/05/25 23:24:23;;;;;;;18.38;4.32;;;;;;;19.48;38.51;102727.09;16120891;19;129324;-40
2023/05/25 23:29:45;;;;;;;13.95;3.90;;;;;;;19.46;38.50;102738.44;16123031;19;130017;-43
2023/05/25 23:35:08;;;;;;;14.68;3.75;;;;;;;19.46;38.48;102737.56;16122779;19;129628;-42
2023/05/25 23:40:30;;;;;;;16.08;4.18;;;;;;;19.45;38.49;102735.84;16121639;19;134551;-40
2023/05/25 23:45:52;;;;;;;16.27;3.95;;;;;;;19.44;38.53;102729.44;16118601;19;129633;-40
2023/05/25 23:51:14;;;;;;;13.77;4.00;;;;;;;19.43;38.64;102727.72;16121305;19;129540;-43
2023/05/25 23:56:35;;;;;;;15.82;4.10;;;;;;;19.43;38.62;102732.44;16120167;19;129349;-42
